sensor_id;sensor_type;location;lat;lon;timestamp;P1;durP1;ratioP1;P2;durP2;ratioP2
37781;SDS011;23621;50.878;4.584;2023-07-31T00:02:20;10.82;;;4.88;;
37781;SDS011;23621;50.878;4.584;2023-07-31T00:05:08;10.15;;;4.85;;
37781;SDS011;23621;50.878;4.584;2023-07-31T00:07:56;13.23;;;4.57;;
37781;SDS011;23621;50.878;4.584;2023-07-31T00:10:43;9.13;;;4.32;;
37781;SDS011;23621;50.878;4.584;2023-07-31T00:13:30;12.80;;;5.00;;
37781;SDS011;23621;50.878;4.584;2023-07-31T00:16:17;12.65;;;5.20;;
37781;SDS011;23621;50.878;4.584;2023-07-31T00:19:05;12.38;;;5.05;;
37781;SDS011;23621;50.878;4.584;2023-07-31T00:21:52;10.82;;;4.80;;
37781;SDS011;23621;50.878;4.584;2023-07-31T00:24:39;11.38;;;4.78;;
37781;SDS011;23621;50.878;4.584;2023-07-31T00:27:26;15.30;;;4.85;;
37781;SDS011;23621;50.878;4.584;2023-07-31T00:30:13;8.48;;;4.65;;
37781;SDS011;23621;50.878;4.584;2023-07-31T00:33:01;12.70;;;4.80;;
37781;SDS011;23621;50.878;4.584;2023-07-31T00:35:48;8.57;;;4.30;;
37781;SDS011;23621;50.878;4.584;2023-07-31T00:38:36;12.55;;;4.85;;
37781;SDS011;23621;50.878;4.584;2023-07-31T00:41:23;15.13;;;5.30;;
37781;SDS011;23621;50.878;4.584;2023-07-31T00:44:11;10.07;;;5.10;;
37781;SDS011;23621;50.878;4.584;2023-07-31T00:46:58;11.73;;;4.97;;
37781;SDS011;23621;50.878;4.584;2023-07-31T00:49:45;10.27;;;4.28;;
37781;SDS011;23621;50.878;4.584;2023-07-31T00:52:33;9.38;;;4.85;;
37781;SDS011;23621;50.878;4.584;2023-07-31T00:55:21;10.68;;;4.78;;
37781;SDS011;23621;50.878;4.584;2023-07-31T00:58:09;8.70;;;4.43;;
37781;SDS011;23621;50.878;4.584;2023-07-31T01:00:56;8.75;;;4.63;;
37781;SDS011;23621;50.878;4.584;2023-07-31T01:03:43;9.90;;;4.15;;
37781;SDS011;23621;50.878;4.584;2023-07-31T01:06:41;8.32;;;4.65;;
37781;SDS011;23621;50.878;4.584;2023-07-31T01:12:56;10.82;;;5.03;;
37781;SDS011;23621;50.878;4.584;2023-07-31T01:15:44;10.18;;;5.03;;
37781;SDS011;23621;50.878;4.584;2023-07-31T01:18:31;11.27;;;5.32;;
37781;SDS011;23621;50.878;4.584;2023-07-31T01:27:24;13.77;;;4.90;;
37781;SDS011;23621;50.878;4.584;2023-07-31T01:30:16;11.57;;;4.50;;
37781;SDS011;23621;50.878;4.584;2023-07-31T01:33:11;8.55;;;4.60;;
37781;SDS011;23621;50.878;4.584;2023-07-31T01:35:58;11.13;;;4.72;;
37781;SDS011;23621;50.878;4.584;2023-07-31T01:38:46;9.18;;;4.60;;
37781;SDS011;23621;50.878;4.584;2023-07-31T01:41:33;8.57;;;4.43;;
37781;SDS011;23621;50.878;4.584;2023-07-31T01:44:20;9.40;;;4.90;;
37781;SDS011;23621;50.878;4.584;2023-07-31T01:47:08;9.73;;;5.50;;
37781;SDS011;23621;50.878;4.584;2023-07-31T01:49:55;11.50;;;5.35;;
37781;SDS011;23621;50.878;4.584;2023-07-31T01:52:42;8.18;;;4.82;;
37781;SDS011;23621;50.878;4.584;2023-07-31T01:55:30;12.98;;;4.60;;
37781;SDS011;23621;50.878;4.584;2023-07-31T01:58:17;10.55;;;4.90;;
37781;SDS011;23621;50.878;4.584;2023-07-31T02:01:04;9.35;;;5.28;;
37781;SDS011;23621;50.878;4.584;2023-07-31T02:03:51;11.32;;;5.05;;
37781;SDS011;23621;50.878;4.584;2023-07-31T02:06:39;8.57;;;4.93;;
37781;SDS011;23621;50.878;4.584;2023-07-31T02:09:26;11.13;;;4.85;;
37781;SDS011;23621;50.878;4.584;2023-07-31T02:12:14;8.93;;;5.03;;
37781;SDS011;23621;50.878;4.584;2023-07-31T02:15:01;11.23;;;5.03;;
37781;SDS011;23621;50.878;4.584;2023-07-31T02:17:48;8.15;;;5.22;;
37781;SDS011;23621;50.878;4.584;2023-07-31T02:20:35;8.65;;;5.00;;
37781;SDS011;23621;50.878;4.584;2023-07-31T02:23:23;11.98;;;5.10;;
37781;SDS011;23621;50.878;4.584;2023-07-31T02:26:10;11.98;;;4.82;;
37781;SDS011;23621;50.878;4.584;2023-07-31T02:28:57;8.90;;;5.55;;
37781;SDS011;23621;50.878;4.584;2023-07-31T02:31:44;8.43;;;5.28;;
37781;SDS011;23621;50.878;4.584;2023-07-31T02:34:31;8.82;;;4.90;;
37781;SDS011;23621;50.878;4.584;2023-07-31T02:37:19;7.45;;;4.57;;
37781;SDS011;23621;50.878;4.584;2023-07-31T02:40:06;7.80;;;4.95;;
37781;SDS011;23621;50.878;4.584;2023-07-31T02:42:53;10.30;;;4.78;;
37781;SDS011;23621;50.878;4.584;2023-07-31T02:45:41;8.05;;;5.53;;
37781;SDS011;23621;50.878;4.584;2023-07-31T02:48:28;7.53;;;4.63;;
37781;SDS011;23621;50.878;4.584;2023-07-31T02:51:15;7.97;;;4.43;;
37781;SDS011;23621;50.878;4.584;2023-07-31T02:54:02;8.73;;;4.65;;
37781;SDS011;23621;50.878;4.584;2023-07-31T02:56:49;6.00;;;4.65;;
37781;SDS011;23621;50.878;4.584;2023-07-31T02:59:37;8.55;;;4.53;;
37781;SDS011;23621;50.878;4.584;2023-07-31T03:02:24;7.82;;;4.60;;
37781;SDS011;23621;50.878;4.584;2023-07-31T03:05:11;9.18;;;4.60;;
37781;SDS011;23621;50.878;4.584;2023-07-31T03:07:58;7.38;;;4.57;;
37781;SDS011;23621;50.878;4.584;2023-07-31T03:10:46;6.57;;;4.15;;
37781;SDS011;23621;50.878;4.584;2023-07-31T03:13:33;8.30;;;4.60;;
37781;SDS011;23621;50.878;4.584;2023-07-31T03:16:20;6.25;;;4.25;;
37781;SDS011;23621;50.878;4.584;2023-07-31T03:19:07;7.07;;;4.40;;
37781;SDS011;23621;50.878;4.584;2023-07-31T03:21:54;8.82;;;5.13;;
37781;SDS011;23621;50.878;4.584;2023-07-31T03:24:42;7.70;;;4.55;;
37781;SDS011;23621;50.878;4.584;2023-07-31T03:27:29;8.82;;;4.93;;
37781;SDS011;23621;50.878;4.584;2023-07-31T03:30:16;7.45;;;4.30;;
37781;SDS011;23621;50.878;4.584;2023-07-31T03:33:03;9.15;;;4.47;;
37781;SDS011;23621;50.878;4.584;2023-07-31T03:35:51;6.28;;;4.32;;
37781;SDS011;23621;50.878;4.584;2023-07-31T03:38:38;7.20;;;4.18;;
37781;SDS011;23621;50.878;4.584;2023-07-31T03:41:25;8.60;;;4.60;;
37781;SDS011;23621;50.878;4.584;2023-07-31T03:44:12;7.13;;;4.30;;
37781;SDS011;23621;50.878;4.584;2023-07-31T03:47:00;8.70;;;4.53;;
37781;SDS011;23621;50.878;4.584;2023-07-31T03:49:47;7.82;;;4.57;;
37781;SDS011;23621;50.878;4.584;2023-07-31T03:52:34;6.35;;;4.80;;
37781;SDS011;23621;50.878;4.584;2023-07-31T03:55:21;5.20;;;4.40;;
37781;SDS011;23621;50.878;4.584;2023-07-31T03:58:08;5.80;;;4.30;;
37781;SDS011;23621;50.878;4.584;2023-07-31T04:00:55;7.65;;;4.63;;
37781;SDS011;23621;50.878;4.584;2023-07-31T04:03:43;6.38;;;4.38;;
37781;SDS011;23621;50.878;4.584;2023-07-31T04:06:30;5.15;;;4.07;;
37781;SDS011;23621;50.878;4.584;2023-07-31T04:09:17;7.95;;;4.05;;
37781;SDS011;23621;50.878;4.584;2023-07-31T04:12:04;7.78;;;4.40;;
37781;SDS011;23621;50.878;4.584;2023-07-31T04:14:52;6.65;;;4.53;;
37781;SDS011;23621;50.878;4.584;2023-07-31T04:17:41;9.20;;;4.78;;
37781;SDS011;23621;50.878;4.584;2023-07-31T04:20:28;6.28;;;4.63;;
37781;SDS011;23621;50.878;4.584;2023-07-31T04:23:15;6.72;;;4.22;;
37781;SDS011;23621;50.878;4.584;2023-07-31T04:26:03;7.30;;;3.95;;
37781;SDS011;23621;50.878;4.584;2023-07-31T04:28:50;8.77;;;4.00;;
37781;SDS011;23621;50.878;4.584;2023-07-31T04:31:37;7.20;;;4.45;;
37781;SDS011;23621;50.878;4.584;2023-07-31T04:34:25;6.80;;;4.03;;
37781;SDS011;23621;50.878;4.584;2023-07-31T04:37:12;10.70;;;4.22;;
37781;SDS011;23621;50.878;4.584;2023-07-31T04:39:59;9.57;;;4.20;;
37781;SDS011;23621;50.878;4.584;2023-07-31T04:42:47;6.15;;;4.30;;
37781;SDS011;23621;50.878;4.584;2023-07-31T04:45:34;5.13;;;4.05;;
37781;SDS011;23621;50.878;4.584;2023-07-31T04:48:21;7.93;;;4.25;;
37781;SDS011;23621;50.878;4.584;2023-07-31T04:51:08;6.75;;;4.32;;
37781;SDS011;23621;50.878;4.584;2023-07-31T04:53:58;7.80;;;4.25;;
37781;SDS011;23621;50.878;4.584;2023-07-31T04:56:45;5.32;;;3.90;;
37781;SDS011;23621;50.878;4.584;2023-07-31T04:59:34;7.03;;;4.20;;
37781;SDS011;23621;50.878;4.584;2023-07-31T05:02:21;5.78;;;4.22;;
37781;SDS011;23621;50.878;4.584;2023-07-31T05:05:08;7.53;;;3.78;;
37781;SDS011;23621;50.878;4.584;2023-07-31T05:07:55;7.70;;;3.88;;
37781;SDS011;23621;50.878;4.584;2023-07-31T05:10:43;5.97;;;4.05;;
37781;SDS011;23621;50.878;4.584;2023-07-31T05:13:30;7.28;;;4.38;;
37781;SDS011;23621;50.878;4.584;2023-07-31T05:16:17;7.18;;;4.50;;
37781;SDS011;23621;50.878;4.584;2023-07-31T05:19:04;6.68;;;4.47;;
37781;SDS011;23621;50.878;4.584;2023-07-31T05:21:52;5.75;;;3.70;;
37781;SDS011;23621;50.878;4.584;2023-07-31T05:24:39;6.22;;;3.95;;
37781;SDS011;23621;50.878;4.584;2023-07-31T05:27:26;5.30;;;3.97;;
37781;SDS011;23621;50.878;4.584;2023-07-31T05:30:13;5.88;;;4.05;;
37781;SDS011;23621;50.878;4.584;2023-07-31T05:33:01;4.57;;;3.78;;
37781;SDS011;23621;50.878;4.584;2023-07-31T05:35:49;4.57;;;3.72;;
37781;SDS011;23621;50.878;4.584;2023-07-31T05:38:36;5.60;;;3.83;;
37781;SDS011;23621;50.878;4.584;2023-07-31T05:41:23;5.15;;;3.65;;
37781;SDS011;23621;50.878;4.584;2023-07-31T05:44:10;4.20;;;3.58;;
37781;SDS011;23621;50.878;4.584;2023-07-31T05:46:57;5.32;;;3.47;;
37781;SDS011;23621;50.878;4.584;2023-07-31T05:49:45;5.57;;;3.15;;
37781;SDS011;23621;50.878;4.584;2023-07-31T05:52:32;7.65;;;3.83;;
37781;SDS011;23621;50.878;4.584;2023-07-31T05:55:19;6.35;;;3.95;;
37781;SDS011;23621;50.878;4.584;2023-07-31T05:58:07;4.88;;;4.10;;
37781;SDS011;23621;50.878;4.584;2023-07-31T06:00:54;5.05;;;4.05;;
37781;SDS011;23621;50.878;4.584;2023-07-31T06:03:41;6.90;;;4.15;;
37781;SDS011;23621;50.878;4.584;2023-07-31T06:06:29;6.10;;;4.35;;
37781;SDS011;23621;50.878;4.584;2023-07-31T06:09:16;6.28;;;3.67;;
37781;SDS011;23621;50.878;4.584;2023-07-31T06:12:03;5.32;;;3.60;;
37781;SDS011;23621;50.878;4.584;2023-07-31T06:14:51;5.57;;;3.58;;
37781;SDS011;23621;50.878;4.584;2023-07-31T06:17:38;6.55;;;4.15;;
37781;SDS011;23621;50.878;4.584;2023-07-31T06:20:25;7.63;;;3.85;;
37781;SDS011;23621;50.878;4.584;2023-07-31T06:23:13;5.95;;;3.70;;
37781;SDS011;23621;50.878;4.584;2023-07-31T06:26:00;4.75;;;3.60;;
37781;SDS011;23621;50.878;4.584;2023-07-31T06:28:47;5.25;;;3.67;;
37781;SDS011;23621;50.878;4.584;2023-07-31T06:31:34;9.15;;;4.47;;
37781;SDS011;23621;50.878;4.584;2023-07-31T06:34:22;7.82;;;4.22;;
37781;SDS011;23621;50.878;4.584;2023-07-31T06:37:09;5.43;;;3.97;;
37781;SDS011;23621;50.878;4.584;2023-07-31T06:39:56;8.75;;;3.92;;
37781;SDS011;23621;50.878;4.584;2023-07-31T06:42:43;8.93;;;4.10;;
37781;SDS011;23621;50.878;4.584;2023-07-31T06:45:30;6.97;;;3.65;;
37781;SDS011;23621;50.878;4.584;2023-07-31T06:48:18;7.22;;;4.10;;
37781;SDS011;23621;50.878;4.584;2023-07-31T06:51:05;5.78;;;3.58;;
37781;SDS011;23621;50.878;4.584;2023-07-31T06:53:52;6.25;;;3.42;;
37781;SDS011;23621;50.878;4.584;2023-07-31T06:56:39;6.25;;;4.20;;
37781;SDS011;23621;50.878;4.584;2023-07-31T06:59:27;7.07;;;3.67;;
37781;SDS011;23621;50.878;4.584;2023-07-31T07:02:14;4.75;;;3.70;;
37781;SDS011;23621;50.878;4.584;2023-07-31T07:05:01;5.93;;;3.92;;
37781;SDS011;23621;50.878;4.584;2023-07-31T07:07:49;4.55;;;3.53;;
37781;SDS011;23621;50.878;4.584;2023-07-31T07:10:40;7.20;;;3.67;;
37781;SDS011;23621;50.878;4.584;2023-07-31T07:13:27;6.00;;;3.65;;
37781;SDS011;23621;50.878;4.584;2023-07-31T07:16:14;7.07;;;3.45;;
37781;SDS011;23621;50.878;4.584;2023-07-31T07:19:01;5.47;;;3.55;;
37781;SDS011;23621;50.878;4.584;2023-07-31T07:21:51;5.85;;;3.40;;
37781;SDS011;23621;50.878;4.584;2023-07-31T07:24:38;6.82;;;3.42;;
37781;SDS011;23621;50.878;4.584;2023-07-31T07:27:25;8.32;;;3.80;;
37781;SDS011;23621;50.878;4.584;2023-07-31T07:30:12;6.32;;;3.80;;
37781;SDS011;23621;50.878;4.584;2023-07-31T07:33:01;5.80;;;3.15;;
37781;SDS011;23621;50.878;4.584;2023-07-31T07:35:48;5.60;;;3.50;;
37781;SDS011;23621;50.878;4.584;2023-07-31T07:38:35;6.72;;;3.80;;
37781;SDS011;23621;50.878;4.584;2023-07-31T07:41:23;4.55;;;3.15;;
37781;SDS011;23621;50.878;4.584;2023-07-31T07:44:10;7.07;;;3.85;;
37781;SDS011;23621;50.878;4.584;2023-07-31T07:46:57;6.60;;;3.58;;
37781;SDS011;23621;50.878;4.584;2023-07-31T07:49:44;5.70;;;3.45;;
37781;SDS011;23621;50.878;4.584;2023-07-31T07:52:38;6.43;;;3.60;;
37781;SDS011;23621;50.878;4.584;2023-07-31T07:55:25;6.18;;;3.42;;
37781;SDS011;23621;50.878;4.584;2023-07-31T07:58:13;6.05;;;3.50;;
37781;SDS011;23621;50.878;4.584;2023-07-31T08:01:00;6.32;;;3.75;;
37781;SDS011;23621;50.878;4.584;2023-07-31T08:03:47;8.07;;;3.40;;
37781;SDS011;23621;50.878;4.584;2023-07-31T08:06:35;6.45;;;3.55;;
37781;SDS011;23621;50.878;4.584;2023-07-31T08:09:22;5.68;;;3.28;;
37781;SDS011;23621;50.878;4.584;2023-07-31T08:12:09;7.20;;;3.60;;
37781;SDS011;23621;50.878;4.584;2023-07-31T08:14:56;9.95;;;4.15;;
37781;SDS011;23621;50.878;4.584;2023-07-31T08:17:44;4.47;;;3.17;;
37781;SDS011;23621;50.878;4.584;2023-07-31T08:20:31;5.72;;;3.50;;
37781;SDS011;23621;50.878;4.584;2023-07-31T08:23:18;6.60;;;2.95;;
37781;SDS011;23621;50.878;4.584;2023-07-31T08:26:05;5.68;;;3.10;;
37781;SDS011;23621;50.878;4.584;2023-07-31T08:28:52;8.13;;;3.05;;
37781;SDS011;23621;50.878;4.584;2023-07-31T08:31:40;7.35;;;3.20;;
37781;SDS011;23621;50.878;4.584;2023-07-31T08:34:27;6.57;;;3.05;;
37781;SDS011;23621;50.878;4.584;2023-07-31T08:37:14;4.88;;;3.00;;
37781;SDS011;23621;50.878;4.584;2023-07-31T08:40:01;4.82;;;3.00;;
37781;SDS011;23621;50.878;4.584;2023-07-31T08:42:50;5.35;;;2.92;;
37781;SDS011;23621;50.878;4.584;2023-07-31T08:45:41;5.68;;;3.13;;
37781;SDS011;23621;50.878;4.584;2023-07-31T08:48:29;5.30;;;2.92;;
37781;SDS011;23621;50.878;4.584;2023-07-31T08:51:19;5.15;;;3.08;;
37781;SDS011;23621;50.878;4.584;2023-07-31T08:54:06;4.60;;;3.22;;
37781;SDS011;23621;50.878;4.584;2023-07-31T08:56:53;5.18;;;3.13;;
37781;SDS011;23621;50.878;4.584;2023-07-31T08:59:42;4.65;;;3.03;;
37781;SDS011;23621;50.878;4.584;2023-07-31T09:02:46;4.90;;;2.88;;
37781;SDS011;23621;50.878;4.584;2023-07-31T09:05:36;3.85;;;2.95;;
37781;SDS011;23621;50.878;4.584;2023-07-31T09:08:26;5.00;;;2.92;;
37781;SDS011;23621;50.878;4.584;2023-07-31T09:11:17;4.80;;;3.15;;
37781;SDS011;23621;50.878;4.584;2023-07-31T09:14:05;5.78;;;3.00;;
37781;SDS011;23621;50.878;4.584;2023-07-31T09:16:56;6.13;;;3.13;;
37781;SDS011;23621;50.878;4.584;2023-07-31T09:19:45;3.55;;;2.83;;
37781;SDS011;23621;50.878;4.584;2023-07-31T09:22:32;5.95;;;3.78;;
37781;SDS011;23621;50.878;4.584;2023-07-31T09:25:23;5.78;;;3.42;;
37781;SDS011;23621;50.878;4.584;2023-07-31T09:28:11;5.13;;;3.63;;
37781;SDS011;23621;50.878;4.584;2023-07-31T09:30:59;5.78;;;3.13;;
37781;SDS011;23621;50.878;4.584;2023-07-31T09:33:54;4.28;;;3.08;;
37781;SDS011;23621;50.878;4.584;2023-07-31T09:36:43;6.32;;;3.70;;
37781;SDS011;23621;50.878;4.584;2023-07-31T09:39:45;4.93;;;3.45;;
37781;SDS011;23621;50.878;4.584;2023-07-31T09:42:33;4.63;;;2.97;;
37781;SDS011;23621;50.878;4.584;2023-07-31T09:45:21;6.32;;;3.75;;
37781;SDS011;23621;50.878;4.584;2023-07-31T09:48:17;7.72;;;3.47;;
37781;SDS011;23621;50.878;4.584;2023-07-31T09:51:05;6.28;;;3.38;;
37781;SDS011;23621;50.878;4.584;2023-07-31T09:53:52;4.82;;;3.33;;
37781;SDS011;23621;50.878;4.584;2023-07-31T09:56:46;6.60;;;3.10;;
37781;SDS011;23621;50.878;4.584;2023-07-31T09:59:35;6.25;;;3.70;;
37781;SDS011;23621;50.878;4.584;2023-07-31T10:02:22;6.15;;;3.53;;
37781;SDS011;23621;50.878;4.584;2023-07-31T10:05:10;5.35;;;3.33;;
37781;SDS011;23621;50.878;4.584;2023-07-31T10:08:02;3.35;;;2.85;;
37781;SDS011;23621;50.878;4.584;2023-07-31T10:10:50;4.35;;;3.70;;
37781;SDS011;23621;50.878;4.584;2023-07-31T10:13:37;5.70;;;3.67;;
37781;SDS011;23621;50.878;4.584;2023-07-31T10:16:25;5.40;;;3.95;;
37781;SDS011;23621;50.878;4.584;2023-07-31T10:19:13;7.10;;;3.80;;
37781;SDS011;23621;50.878;4.584;2023-07-31T10:22:00;6.60;;;4.03;;
37781;SDS011;23621;50.878;4.584;2023-07-31T10:24:51;5.68;;;3.65;;
37781;SDS011;23621;50.878;4.584;2023-07-31T10:27:41;5.80;;;4.18;;
37781;SDS011;23621;50.878;4.584;2023-07-31T10:30:29;7.78;;;4.10;;
37781;SDS011;23621;50.878;4.584;2023-07-31T10:33:19;4.85;;;3.78;;
37781;SDS011;23621;50.878;4.584;2023-07-31T10:36:14;5.22;;;4.05;;
37781;SDS011;23621;50.878;4.584;2023-07-31T10:39:03;6.63;;;4.55;;
37781;SDS011;23621;50.878;4.584;2023-07-31T10:41:51;7.93;;;4.10;;
37781;SDS011;23621;50.878;4.584;2023-07-31T10:44:39;11.35;;;4.57;;
37781;SDS011;23621;50.878;4.584;2023-07-31T10:47:36;6.43;;;3.88;;
37781;SDS011;23621;50.878;4.584;2023-07-31T10:50:25;7.38;;;4.00;;
37781;SDS011;23621;50.878;4.584;2023-07-31T10:53:22;8.23;;;4.65;;
37781;SDS011;23621;50.878;4.584;2023-07-31T10:56:09;6.50;;;4.40;;
37781;SDS011;23621;50.878;4.584;2023-07-31T10:59:05;7.57;;;3.92;;
37781;SDS011;23621;50.878;4.584;2023-07-31T11:01:53;6.72;;;4.18;;
37781;SDS011;23621;50.878;4.584;2023-07-31T11:04:43;8.32;;;4.07;;
37781;SDS011;23621;50.878;4.584;2023-07-31T11:07:46;7.18;;;4.25;;
37781;SDS011;23621;50.878;4.584;2023-07-31T11:10:33;7.88;;;4.50;;
37781;SDS011;23621;50.878;4.584;2023-07-31T11:13:21;7.45;;;4.43;;
37781;SDS011;23621;50.878;4.584;2023-07-31T11:16:08;8.02;;;4.72;;
37781;SDS011;23621;50.878;4.584;2023-07-31T11:18:56;7.75;;;4.40;;
37781;SDS011;23621;50.878;4.584;2023-07-31T11:21:44;6.90;;;4.20;;
37781;SDS011;23621;50.878;4.584;2023-07-31T11:24:31;9.32;;;4.50;;
37781;SDS011;23621;50.878;4.584;2023-07-31T11:27:18;6.43;;;4.32;;
37781;SDS011;23621;50.878;4.584;2023-07-31T11:30:05;6.05;;;4.05;;
37781;SDS011;23621;50.878;4.584;2023-07-31T11:32:55;9.23;;;4.70;;
37781;SDS011;23621;50.878;4.584;2023-07-31T11:35:43;7.90;;;4.25;;
37781;SDS011;23621;50.878;4.584;2023-07-31T11:38:33;6.40;;;4.30;;
37781;SDS011;23621;50.878;4.584;2023-07-31T11:41:20;8.88;;;4.30;;
37781;SDS011;23621;50.878;4.584;2023-07-31T11:44:07;8.45;;;4.13;;
37781;SDS011;23621;50.878;4.584;2023-07-31T11:47:13;8.32;;;4.75;;
37781;SDS011;23621;50.878;4.584;2023-07-31T11:50:00;7.53;;;4.13;;
37781;SDS011;23621;50.878;4.584;2023-07-31T11:52:48;7.80;;;4.40;;
37781;SDS011;23621;50.878;4.584;2023-07-31T11:55:38;7.40;;;4.30;;
37781;SDS011;23621;50.878;4.584;2023-07-31T11:58:26;9.45;;;4.60;;
37781;SDS011;23621;50.878;4.584;2023-07-31T12:01:15;10.85;;;4.22;;
37781;SDS011;23621;50.878;4.584;2023-07-31T12:04:04;7.35;;;4.45;;
37781;SDS011;23621;50.878;4.584;2023-07-31T12:06:55;7.40;;;4.63;;
37781;SDS011;23621;50.878;4.584;2023-07-31T12:09:54;7.65;;;4.30;;
37781;SDS011;23621;50.878;4.584;2023-07-31T12:12:41;6.47;;;4.00;;
37781;SDS011;23621;50.878;4.584;2023-07-31T12:15:35;6.50;;;4.30;;
37781;SDS011;23621;50.878;4.584;2023-07-31T12:18:29;7.93;;;4.50;;
37781;SDS011;23621;50.878;4.584;2023-07-31T12:21:24;6.95;;;4.43;;
37781;SDS011;23621;50.878;4.584;2023-07-31T12:24:14;10.88;;;4.55;;
37781;SDS011;23621;50.878;4.584;2023-07-31T12:27:07;7.38;;;4.10;;
37781;SDS011;23621;50.878;4.584;2023-07-31T12:29:56;6.10;;;4.03;;
37781;SDS011;23621;50.878;4.584;2023-07-31T12:32:43;9.07;;;4.35;;
37781;SDS011;23621;50.878;4.584;2023-07-31T12:35:36;5.30;;;3.83;;
37781;SDS011;23621;50.878;4.584;2023-07-31T12:38:24;5.55;;;3.92;;
37781;SDS011;23621;50.878;4.584;2023-07-31T12:41:11;7.78;;;4.32;;
37781;SDS011;23621;50.878;4.584;2023-07-31T12:43:59;7.07;;;4.28;;
37781;SDS011;23621;50.878;4.584;2023-07-31T12:46:46;7.90;;;4.68;;
37781;SDS011;23621;50.878;4.584;2023-07-31T12:49:33;5.72;;;4.38;;
37781;SDS011;23621;50.878;4.584;2023-07-31T12:52:21;6.07;;;4.35;;
37781;SDS011;23621;50.878;4.584;2023-07-31T12:55:08;9.20;;;4.22;;
37781;SDS011;23621;50.878;4.584;2023-07-31T12:57:57;7.80;;;4.30;;
37781;SDS011;23621;50.878;4.584;2023-07-31T13:00:44;9.35;;;4.85;;
37781;SDS011;23621;50.878;4.584;2023-07-31T13:03:31;7.75;;;4.38;;
37781;SDS011;23621;50.878;4.584;2023-07-31T13:06:19;7.90;;;4.55;;
37781;SDS011;23621;50.878;4.584;2023-07-31T13:09:06;9.10;;;4.65;;
37781;SDS011;23621;50.878;4.584;2023-07-31T13:11:54;8.00;;;4.95;;
37781;SDS011;23621;50.878;4.584;2023-07-31T13:14:41;8.80;;;4.30;;
37781;SDS011;23621;50.878;4.584;2023-07-31T13:17:28;7.65;;;4.10;;
37781;SDS011;23621;50.878;4.584;2023-07-31T13:20:15;6.20;;;4.50;;
37781;SDS011;23621;50.878;4.584;2023-07-31T13:23:02;6.88;;;4.10;;
37781;SDS011;23621;50.878;4.584;2023-07-31T13:25:50;6.57;;;4.15;;
37781;SDS011;23621;50.878;4.584;2023-07-31T13:28:37;5.20;;;3.53;;
37781;SDS011;23621;50.878;4.584;2023-07-31T13:31:24;9.23;;;3.88;;
37781;SDS011;23621;50.878;4.584;2023-07-31T13:34:12;7.82;;;3.60;;
37781;SDS011;23621;50.878;4.584;2023-07-31T13:36:59;6.95;;;3.35;;
37781;SDS011;23621;50.878;4.584;2023-07-31T13:39:46;7.15;;;3.67;;
37781;SDS011;23621;50.878;4.584;2023-07-31T13:42:33;14.75;;;3.90;;
37781;SDS011;23621;50.878;4.584;2023-07-31T13:45:20;5.55;;;3.15;;
37781;SDS011;23621;50.878;4.584;2023-07-31T13:48:08;6.10;;;3.22;;
37781;SDS011;23621;50.878;4.584;2023-07-31T13:50:55;6.18;;;3.10;;
37781;SDS011;23621;50.878;4.584;2023-07-31T13:53:43;3.88;;;3.22;;
37781;SDS011;23621;50.878;4.584;2023-07-31T13:56:30;8.18;;;3.10;;
37781;SDS011;23621;50.878;4.584;2023-07-31T13:59:17;4.93;;;2.92;;
37781;SDS011;23621;50.878;4.584;2023-07-31T14:02:04;4.72;;;3.13;;
37781;SDS011;23621;50.878;4.584;2023-07-31T14:04:52;4.63;;;2.78;;
37781;SDS011;23621;50.878;4.584;2023-07-31T14:07:39;4.05;;;2.85;;
37781;SDS011;23621;50.878;4.584;2023-07-31T14:10:26;4.07;;;2.72;;
37781;SDS011;23621;50.878;4.584;2023-07-31T14:13:13;4.47;;;2.50;;
37781;SDS011;23621;50.878;4.584;2023-07-31T14:16:01;3.17;;;2.38;;
37781;SDS011;23621;50.878;4.584;2023-07-31T14:18:48;4.07;;;2.90;;
37781;SDS011;23621;50.878;4.584;2023-07-31T14:21:36;4.22;;;2.60;;
37781;SDS011;23621;50.878;4.584;2023-07-31T14:24:23;3.60;;;2.53;;
37781;SDS011;23621;50.878;4.584;2023-07-31T14:27:10;3.20;;;2.47;;
37781;SDS011;23621;50.878;4.584;2023-07-31T14:29:57;5.07;;;2.95;;
37781;SDS011;23621;50.878;4.584;2023-07-31T14:32:44;4.47;;;2.80;;
37781;SDS011;23621;50.878;4.584;2023-07-31T14:35:33;4.45;;;2.90;;
37781;SDS011;23621;50.878;4.584;2023-07-31T14:38:21;5.85;;;3.08;;
37781;SDS011;23621;50.878;4.584;2023-07-31T14:41:08;4.40;;;3.25;;
37781;SDS011;23621;50.878;4.584;2023-07-31T14:43:55;5.90;;;2.85;;
37781;SDS011;23621;50.878;4.584;2023-07-31T14:46:42;4.47;;;2.75;;
37781;SDS011;23621;50.878;4.584;2023-07-31T14:49:30;5.07;;;3.15;;
37781;SDS011;23621;50.878;4.584;2023-07-31T14:52:17;4.03;;;3.10;;
37781;SDS011;23621;50.878;4.584;2023-07-31T14:55:04;2.88;;;2.42;;
37781;SDS011;23621;50.878;4.584;2023-07-31T14:57:52;3.72;;;2.92;;
37781;SDS011;23621;50.878;4.584;2023-07-31T15:00:39;3.35;;;2.33;;
37781;SDS011;23621;50.878;4.584;2023-07-31T15:03:26;3.72;;;2.65;;
37781;SDS011;23621;50.878;4.584;2023-07-31T15:06:14;2.78;;;2.58;;
37781;SDS011;23621;50.878;4.584;2023-07-31T15:09:01;4.53;;;2.20;;
37781;SDS011;23621;50.878;4.584;2023-07-31T15:11:48;2.53;;;2.30;;
37781;SDS011;23621;50.878;4.584;2023-07-31T15:14:36;2.85;;;2.15;;
37781;SDS011;23621;50.878;4.584;2023-07-31T15:17:23;3.95;;;2.35;;
37781;SDS011;23621;50.878;4.584;2023-07-31T15:20:10;3.63;;;1.92;;
37781;SDS011;23621;50.878;4.584;2023-07-31T15:22:59;2.65;;;2.10;;
37781;SDS011;23621;50.878;4.584;2023-07-31T15:25:46;2.58;;;1.77;;
37781;SDS011;23621;50.878;4.584;2023-07-31T15:28:33;3.08;;;1.90;;
37781;SDS011;23621;50.878;4.584;2023-07-31T15:31:21;2.55;;;1.80;;
37781;SDS011;23621;50.878;4.584;2023-07-31T15:34:09;3.45;;;1.70;;
37781;SDS011;23621;50.878;4.584;2023-07-31T15:36:56;1.98;;;1.73;;
37781;SDS011;23621;50.878;4.584;2023-07-31T15:39:43;2.33;;;1.60;;
37781;SDS011;23621;50.878;4.584;2023-07-31T15:42:30;1.55;;;1.45;;
37781;SDS011;23621;50.878;4.584;2023-07-31T15:45:20;2.05;;;1.75;;
37781;SDS011;23621;50.878;4.584;2023-07-31T15:48:07;2.20;;;1.30;;
37781;SDS011;23621;50.878;4.584;2023-07-31T15:50:54;4.15;;;1.20;;
37781;SDS011;23621;50.878;4.584;2023-07-31T15:53:41;1.65;;;1.48;;
37781;SDS011;23621;50.878;4.584;2023-07-31T15:56:29;1.40;;;1.30;;
37781;SDS011;23621;50.878;4.584;2023-07-31T15:59:19;1.48;;;1.38;;
37781;SDS011;23621;50.878;4.584;2023-07-31T16:02:06;1.45;;;1.23;;
37781;SDS011;23621;50.878;4.584;2023-07-31T16:04:57;1.00;;;1.00;;
37781;SDS011;23621;50.878;4.584;2023-07-31T16:07:45;1.42;;;1.20;;
37781;SDS011;23621;50.878;4.584;2023-07-31T16:10:32;1.35;;;1.25;;
37781;SDS011;23621;50.878;4.584;2023-07-31T16:13:19;2.17;;;1.42;;
37781;SDS011;23621;50.878;4.584;2023-07-31T16:16:06;1.95;;;1.20;;
37781;SDS011;23621;50.878;4.584;2023-07-31T16:18:53;1.27;;;1.10;;
37781;SDS011;23621;50.878;4.584;2023-07-31T16:21:41;2.15;;;1.33;;
37781;SDS011;23621;50.878;4.584;2023-07-31T16:24:28;1.48;;;1.38;;
37781;SDS011;23621;50.878;4.584;2023-07-31T16:27:16;1.75;;;1.45;;
37781;SDS011;23621;50.878;4.584;2023-07-31T16:30:05;3.08;;;1.60;;
37781;SDS011;23621;50.878;4.584;2023-07-31T16:32:53;1.60;;;1.50;;
37781;SDS011;23621;50.878;4.584;2023-07-31T16:35:41;1.70;;;1.45;;
37781;SDS011;23621;50.878;4.584;2023-07-31T16:38:28;1.48;;;1.27;;
37781;SDS011;23621;50.878;4.584;2023-07-31T16:41:15;2.30;;;1.40;;
37781;SDS011;23621;50.878;4.584;2023-07-31T16:44:02;1.60;;;1.30;;
37781;SDS011;23621;50.878;4.584;2023-07-31T16:46:50;2.40;;;1.60;;
37781;SDS011;23621;50.878;4.584;2023-07-31T16:49:37;1.48;;;1.38;;
37781;SDS011;23621;50.878;4.584;2023-07-31T16:52:24;1.75;;;1.50;;
37781;SDS011;23621;50.878;4.584;2023-07-31T16:55:11;2.97;;;1.30;;
37781;SDS011;23621;50.878;4.584;2023-07-31T16:57:59;3.05;;;1.30;;
37781;SDS011;23621;50.878;4.584;2023-07-31T17:00:46;1.40;;;1.30;;